Time;durP1;ratioP1;P1;durP2;ratioP2;P2;SDS_P1;SDS_P2;PMS_P1;PMS_P2;Temp;Humidity;BMP_temperature;BMP_pressure;BME280_temperature;BME280_humidity;BME280_pressure;Samples;Min_cycle;Max_cycle;Signal;HPM_P1;HPM_P2
2022/11/01 00:01:13;;;;;;;16.73;5.80;;;16.90;99.90;;;;;;5096022;28;25061;-75
2022/11/01 00:03:39;;;;;;;11.32;5.78;;;16.90;99.90;;;;;;5067337;28;25061;-76
2022/11/01 00:06:05;;;;;;;18.65;5.93;;;16.90;99.90;;;;;;5055470;28;25055;-76
2022/11/01 00:08:30;;;;;;;11.25;5.38;;;17.00;99.90;;;;;;5071863;28;25078;-78
2022/11/01 00:11:04;;;;;;;13.02;5.40;;;16.90;99.90;;;;;;5074215;28;25057;-76
2022/11/01 00:13:34;;;;;;;11.85;6.05;;;16.90;99.90;;;;;;5049234;28;25151;-77
2022/11/01 00:15:59;;;;;;;10.43;5.22;;;16.80;99.90;;;;;;5068627;28;25131;-76
2022/11/01 00:18:25;;;;;;;9.98;5.22;;;16.90;99.90;;;;;;5042213;28;25076;-76
2022/11/01 00:20:51;;;;;;;11.32;5.88;;;16.90;99.90;;;;;;5068104;28;25059;-77
2022/11/01 00:23:16;;;;;;;15.63;5.78;;;16.80;99.90;;;;;;5054608;28;25142;-76
2022/11/01 00:25:42;;;;;;;10.57;5.18;;;16.80;99.90;;;;;;5060002;28;25151;-76
2022/11/01 00:28:08;;;;;;;13.10;5.88;;;16.80;99.90;;;;;;5063896;28;25051;-74
2022/11/01 00:30:37;;;;;;;12.60;5.05;;;16.90;99.90;;;;;;5066989;28;25063;-77
2022/11/01 00:33:03;;;;;;;14.38;5.00;;;16.90;99.90;;;;;;5057003;28;24903;-75
2022/11/01 00:35:30;;;;;;;12.50;5.25;;;16.90;99.90;;;;;;5058716;28;25188;-76
2022/11/01 00:37:57;;;;;;;12.02;5.00;;;16.90;99.90;;;;;;5063496;28;25047;-76
2022/11/01 00:40:23;;;;;;;12.98;5.63;;;16.90;99.90;;;;;;5042347;28;25166;-75
2022/11/01 00:42:49;;;;;;;16.20;5.10;;;16.90;99.90;;;;;;5051321;28;25095;-76
2022/11/01 00:45:14;;;;;;;9.25;4.68;;;17.00;99.90;;;;;;5058882;28;25063;-76
2022/11/01 00:47:40;;;;;;;22.48;4.80;;;16.90;99.90;;;;;;5042532;28;25105;-75
2022/11/01 00:50:06;;;;;;;11.98;4.68;;;17.00;99.90;;;;;;5067010;28;25067;-75
2022/11/01 00:52:31;;;;;;;12.48;4.90;;;16.90;99.90;;;;;;5065635;28;25062;-74
2022/11/01 00:54:57;;;;;;;10.07;5.18;;;16.90;99.90;;;;;;5052931;28;25073;-74
2022/11/01 00:57:23;;;;;;;11.05;5.20;;;17.00;99.90;;;;;;5062393;28;25060;-75
2022/11/01 00:59:48;;;;;;;13.88;5.95;;;16.90;99.90;;;;;;5060901;28;25055;-75
2022/11/01 01:02:14;;;;;;;11.75;5.03;;;16.90;99.90;;;;;;5061149;28;25140;-75
2022/11/01 01:04:42;;;;;;;11.10;5.50;;;17.00;99.90;;;;;;5063683;28;25056;-75
2022/11/01 01:07:08;;;;;;;14.85;4.75;;;17.00;99.90;;;;;;5066088;28;25092;-75
2022/11/01 01:09:34;;;;;;;11.48;4.82;;;17.10;99.90;;;;;;5078256;28;25059;-76
2022/11/01 01:12:00;;;;;;;10.57;4.32;;;17.10;99.90;;;;;;5066542;28;25065;-73
2022/11/01 01:14:26;;;;;;;12.95;4.70;;;17.20;99.90;;;;;;5070081;28;25135;-75
2022/11/01 01:16:52;;;;;;;11.65;4.40;;;17.20;99.90;;;;;;5069529;28;25108;-75
2022/11/01 01:19:18;;;;;;;12.70;5.18;;;17.20;99.90;;;;;;5061793;28;25077;-75
2022/11/01 01:21:43;;;;;;;13.90;5.18;;;17.20;99.90;;;;;;5060474;28;25050;-75
2022/11/01 01:24:09;;;;;;;9.65;4.38;;;17.20;99.90;;;;;;5061488;28;25149;-74
2022/11/01 01:26:35;;;;;;;11.25;5.18;;;17.20;99.90;;;;;;5053038;28;25133;-75
2022/11/01 01:29:00;;;;;;;12.38;4.82;;;17.30;99.90;;;;;;5059731;28;25151;-75
2022/11/01 01:31:26;;;;;;;10.90;5.28;;;17.30;99.90;;;;;;5051620;28;25064;-75
2022/11/01 01:33:52;;;;;;;9.93;4.47;;;17.40;99.90;;;;;;5056933;28;25129;-75
2022/11/01 01:36:17;;;;;;;11.55;5.22;;;17.50;99.90;;;;;;5055937;28;25097;-74
2022/11/01 01:38:43;;;;;;;13.15;4.45;;;17.50;99.90;;;;;;5070418;28;25126;-76
2022/11/01 01:43:53;;;;;;;10.80;3.92;;;17.60;99.90;;;;;;5054963;28;25157;-73
2022/11/01 01:46:18;;;;;;;10.23;4.07;;;17.60;99.90;;;;;;5066316;28;25084;-71
2022/11/01 01:48:47;;;;;;;12.32;4.65;;;17.80;99.90;;;;;;5053863;28;25114;-73
2022/11/01 01:51:17;;;;;;;10.13;4.63;;;17.80;99.90;;;;;;5069299;28;25057;-76
2022/11/01 01:53:52;;;;;;;10.25;3.58;;;17.80;99.90;;;;;;5066630;28;25088;-74
2022/11/01 01:56:36;;;;;;;11.40;5.10;;;17.90;99.90;;;;;;5046540;28;25095;-75
2022/11/01 01:59:07;;;;;;;8.15;3.45;;;17.90;99.90;;;;;;5065623;28;25086;-75
2022/11/01 02:01:35;;;;;;;10.77;4.70;;;17.90;99.90;;;;;;5064580;28;25080;-75
2022/11/01 02:04:14;;;;;;;9.20;3.47;;;17.90;99.90;;;;;;5055313;28;25151;-72
2022/11/01 02:06:40;;;;;;;10.02;4.28;;;17.90;99.90;;;;;;5062706;28;25170;-74
2022/11/01 02:09:07;;;;;;;7.55;3.83;;;17.90;99.90;;;;;;5070922;28;25091;-70
2022/11/01 02:11:33;;;;;;;12.65;4.07;;;17.90;99.90;;;;;;5075141;28;25099;-75
2022/11/01 02:14:00;;;;;;;10.23;4.63;;;17.90;99.90;;;;;;5063774;28;25066;-76
2022/11/01 02:16:37;;;;;;;10.88;3.33;;;17.80;99.90;;;;;;5063569;28;25074;-73
2022/11/01 02:19:40;;;;;;;7.93;3.22;;;17.90;99.90;;;;;;5036750;28;25104;-74
2022/11/01 02:22:08;;;;;;;5.45;3.22;;;17.80;99.90;;;;;;5060771;28;25072;-77
2022/11/01 02:24:49;;;;;;;6.65;3.15;;;17.80;99.90;;;;;;5062556;28;25098;-74
2022/11/01 02:27:53;;;;;;;11.38;3.42;;;17.80;99.90;;;;;;5069477;28;25068;-78
2022/11/01 02:30:20;;;;;;;5.93;2.95;;;17.80;99.90;;;;;;5040385;28;25070;-77
2022/11/01 02:32:54;;;;;;;4.78;3.00;;;17.80;99.90;;;;;;5047566;28;25065;-74
2022/11/01 02:35:26;;;;;;;15.15;3.75;;;17.80;99.90;;;;;;5068570;28;25144;-77
2022/11/01 02:37:58;;;;;;;8.85;2.78;;;17.80;99.90;;;;;;5052388;28;25054;-75
2022/11/01 02:40:34;;;;;;;8.67;3.03;;;17.70;99.90;;;;;;5062167;28;25087;-74
2022/11/01 02:43:11;;;;;;;5.60;3.20;;;17.60;99.90;;;;;;5061820;28;25095;-77
2022/11/01 02:45:40;;;;;;;11.10;2.63;;;17.50;99.90;;;;;;5059927;28;25060;-76
2022/11/01 02:48:06;;;;;;;6.68;2.42;;;17.40;99.90;;;;;;5062582;28;25084;-77
2022/11/01 02:50:46;;;;;;;7.80;2.85;;;17.20;99.90;;;;;;5062251;28;25171;-75
2022/11/01 02:53:12;;;;;;;5.50;1.80;;;17.10;99.90;;;;;;5063819;28;25053;-76
2022/11/01 02:55:37;;;;;;;4.82;1.90;;;17.00;99.90;;;;;;5056866;28;25099;-78
2022/11/01 02:58:17;;;;;;;5.47;2.03;;;16.90;99.90;;;;;;5056137;28;25087;-74
2022/11/01 03:00:44;;;;;;;4.78;2.05;;;16.80;99.90;;;;;;5054789;28;25140;-76
2022/11/01 03:03:10;;;;;;;3.70;1.67;;;16.70;99.90;;;;;;5059217;28;25109;-74
2022/11/01 03:05:41;;;;;;;3.33;2.08;;;16.60;99.90;;;;;;5057741;28;25109;-75
2022/11/01 03:08:10;;;;;;;4.97;1.97;;;16.60;99.90;;;;;;5056510;28;25114;-76
2022/11/01 03:10:45;;;;;;;4.47;2.15;;;16.50;99.90;;;;;;5044329;28;25093;-76
2022/11/01 03:13:26;;;;;;;3.00;1.35;;;16.40;99.90;;;;;;5060622;28;25075;-74
2022/11/01 03:16:01;;;;;;;4.20;1.17;;;16.30;99.90;;;;;;5060795;28;25058;-75
2022/11/01 03:18:33;;;;;;;2.17;0.82;;;16.10;99.90;;;;;;5070703;28;25070;-77
2022/11/01 03:21:14;;;;;;;3.58;1.05;;;16.00;99.90;;;;;;5056668;28;25108;-77
2022/11/01 03:23:50;;;;;;;2.75;0.75;;;15.90;99.90;;;;;;5062112;28;25069;-75
2022/11/01 03:26:22;;;;;;;5.40;1.30;;;15.80;99.90;;;;;;5041400;28;25059;-76
2022/11/01 03:28:52;;;;;;;2.08;0.70;;;15.80;99.90;;;;;;5059928;28;25067;-76
2022/11/01 03:31:26;;;;;;;1.20;0.80;;;15.70;99.90;;;;;;5064008;28;25052;-76
2022/11/01 03:33:57;;;;;;;2.17;0.70;;;15.60;99.90;;;;;;5061441;28;25077;-77
2022/11/01 03:36:29;;;;;;;3.35;1.73;;;15.60;99.90;;;;;;5072983;28;25148;-76
2022/11/01 03:39:04;;;;;;;0.80;0.80;;;15.50;99.90;;;;;;5068805;28;25059;-75
2022/11/01 03:41:35;;;;;;;2.17;1.00;;;15.50;99.90;;;;;;5057480;28;25048;-75
2022/11/01 03:44:01;;;;;;;1.63;1.20;;;15.50;99.90;;;;;;5061142;28;25052;-75
2022/11/01 03:46:27;;;;;;;1.48;0.90;;;15.50;99.90;;;;;;5065728;28;25092;-76
2022/11/01 03:48:53;;;;;;;4.53;0.80;;;15.40;99.90;;;;;;5058928;28;25095;-78
2022/11/01 03:51:18;;;;;;;2.55;0.70;;;15.40;99.90;;;;;;5077310;28;25078;-77
2022/11/01 03:53:44;;;;;;;0.90;0.65;;;15.30;99.90;;;;;;5054372;28;25098;-75
2022/11/01 03:56:09;;;;;;;4.43;0.98;;;15.30;99.90;;;;;;5059158;28;25056;-78
2022/11/01 03:58:41;;;;;;;2.38;0.50;;;15.30;99.90;;;;;;5065812;28;25111;-76
2022/11/01 04:01:08;;;;;;;7.87;0.83;;;15.20;99.90;;;;;;5051704;28;25076;-75
2022/11/01 04:03:34;;;;;;;1.95;0.43;;;15.20;99.90;;;;;;5049344;28;25201;-77
2022/11/01 04:05:59;;;;;;;1.50;0.63;;;15.20;99.90;;;;;;5068239;28;25045;-80
2022/11/01 04:08:25;;;;;;;4.55;0.68;;;15.20;99.90;;;;;;5048565;28;25159;-75
2022/11/01 04:10:50;;;;;;;2.67;0.98;;;15.10;99.90;;;;;;5072591;28;25092;-75
2022/11/01 04:13:16;;;;;;;1.88;0.77;;;15.10;99.90;;;;;;5070233;28;25075;-75
2022/11/01 04:21:20;;;;;;;5.38;0.80;;;15.00;99.90;;;;;;5102643;28;25067;-75
2022/11/01 04:23:46;;;;;;;9.93;1.00;;;14.90;99.90;;;;;;5080516;28;25082;-77
2022/11/01 04:26:16;;;;;;;5.28;0.80;;;14.80;99.90;;;;;;5078511;28;25082;-76
2022/11/01 04:28:55;;;;;;;2.85;0.68;;;14.80;99.90;;;;;;5102585;28;25163;-72
2022/11/01 04:31:23;;;;;;;2.80;0.80;;;14.70;99.90;;;;;;5086387;28;25054;-77
2022/11/01 04:33:49;;;;;;;9.98;1.10;;;14.70;99.90;;;;;;5093961;28;25063;-77
2022/11/01 04:36:14;;;;;;;9.23;1.05;;;14.70;99.90;;;;;;5091843;28;25137;-74
2022/11/01 04:38:40;;;;;;;5.20;1.00;;;14.70;99.90;;;;;;5062266;28;25060;-76
2022/11/01 04:41:06;;;;;;;3.83;0.55;;;14.70;99.90;;;;;;5079770;28;25085;-74
2022/11/01 04:43:31;;;;;;;7.07;1.08;;;14.60;99.90;;;;;;5078538;28;25082;-74
2022/11/01 04:45:57;;;;;;;5.90;1.00;;;14.50;99.90;;;;;;5060964;28;25070;-70
2022/11/01 04:48:23;;;;;;;11.52;1.10;;;14.50;99.90;;;;;;5060343;28;25055;-74
2022/11/01 04:50:49;;;;;;;3.17;0.73;;;14.40;99.90;;;;;;5075929;28;25147;-72
2022/11/01 04:53:15;;;;;;;3.35;0.80;;;14.40;99.90;;;;;;5059137;28;25080;-71
2022/11/01 04:55:40;;;;;;;9.48;1.50;;;14.20;99.90;;;;;;5073438;28;25050;-71
2022/11/01 04:58:07;;;;;;;5.35;1.13;;;14.20;99.90;;;;;;5067130;28;25159;-74
2022/11/01 05:00:33;;;;;;;3.78;1.25;;;14.20;99.90;;;;;;5048854;28;25125;-71
2022/11/01 05:03:06;;;;;;;13.43;1.48;;;14.20;99.90;;;;;;5070073;28;25062;-73
2022/11/01 05:05:33;;;;;;;1.63;0.93;;;14.10;99.90;;;;;;5071020;28;25080;-71
2022/11/01 05:08:04;;;;;;;7.50;1.27;;;14.10;99.90;;;;;;5053724;28;25066;-72
2022/11/01 05:10:31;;;;;;;2.63;1.42;;;14.10;99.90;;;;;;5065700;28;25185;-72
2022/11/01 05:12:56;;;;;;;11.13;1.67;;;14.10;99.90;;;;;;5061052;28;25151;-72
2022/11/01 05:15:22;;;;;;;6.00;1.35;;;14.10;99.90;;;;;;5055693;28;25062;-72
2022/11/01 05:17:48;;;;;;;5.75;1.55;;;14.00;99.90;;;;;;5056018;28;25106;-72
2022/11/01 05:20:13;;;;;;;4.25;1.00;;;14.00;99.90;;;;;;5059726;28;25088;-70
2022/11/01 05:22:39;;;;;;;9.07;1.20;;;14.00;99.90;;;;;;5067678;28;25166;-74
2022/11/01 05:25:08;;;;;;;8.13;1.67;;;14.00;99.90;;;;;;5062815;28;25065;-72
2022/11/01 05:27:34;;;;;;;4.15;1.17;;;14.00;99.90;;;;;;5048453;28;25070;-72
2022/11/01 05:30:00;;;;;;;8.23;1.05;;;14.10;99.90;;;;;;5067962;28;25047;-72
2022/11/01 05:32:26;;;;;;;5.25;1.30;;;14.10;99.90;;;;;;5063922;28;25064;-73
2022/11/01 05:34:51;;;;;;;2.75;1.05;;;14.10;99.90;;;;;;5060861;28;25123;-72
2022/11/01 05:37:17;;;;;;;2.80;0.93;;;14.10;99.90;;;;;;5065669;28;25060;-72
2022/11/01 05:39:43;;;;;;;8.18;0.95;;;14.10;99.90;;;;;;5074432;28;25056;-72
2022/11/01 05:42:08;;;;;;;7.57;1.08;;;14.10;99.90;;;;;;5062531;28;25062;-70
2022/11/01 05:44:34;;;;;;;8.10;1.40;;;14.00;99.90;;;;;;5070597;28;25115;-72
2022/11/01 05:47:05;;;;;;;8.73;1.75;;;14.00;99.90;;;;;;5063340;28;25086;-73
2022/11/01 05:49:31;;;;;;;6.15;1.67;;;13.90;99.90;;;;;;5059026;28;25142;-72
2022/11/01 05:51:56;;;;;;;3.90;1.20;;;13.90;99.90;;;;;;5066664;28;25079;-71
2022/11/01 05:54:22;;;;;;;5.97;1.50;;;13.80;99.90;;;;;;5067707;28;25170;-71
2022/11/01 05:56:48;;;;;;;9.05;1.40;;;13.80;99.90;;;;;;5076217;28;25171;-71
2022/11/01 05:59:13;;;;;;;6.95;1.23;;;13.80;99.90;;;;;;5065948;28;25066;-70
2022/11/01 06:01:39;;;;;;;11.15;2.20;;;13.70;99.90;;;;;;5063076;28;25068;-72
2022/11/01 06:04:06;;;;;;;13.07;2.75;;;13.70;99.90;;;;;;5074309;28;25308;-71
2022/11/01 06:06:32;;;;;;;9.35;1.50;;;13.70;99.90;;;;;;5067596;28;25079;-72
2022/11/01 06:08:59;;;;;;;6.32;1.60;;;13.70;99.90;;;;;;5069203;28;25142;-71
2022/11/01 06:11:26;;;;;;;10.77;2.10;;;13.70;99.90;;;;;;5056317;28;25074;-71
2022/11/01 06:13:55;;;;;;;11.38;1.88;;;13.70;99.90;;;;;;5065104;28;25111;-73
2022/11/01 06:16:21;;;;;;;6.88;1.50;;;13.70;99.90;;;;;;5076071;28;25091;-70
2022/11/01 06:18:47;;;;;;;12.60;1.92;;;13.60;99.90;;;;;;5073861;28;25184;-72
2022/11/01 06:21:14;;;;;;;12.45;2.25;;;13.50;99.90;;;;;;5078459;28;25074;-72
2022/11/01 06:23:39;;;;;;;10.20;2.00;;;13.50;99.90;;;;;;5074260;28;25066;-70
2022/11/01 06:26:05;;;;;;;8.68;2.10;;;13.50;99.90;;;;;;5080671;28;25101;-71
2022/11/01 06:28:32;;;;;;;9.25;2.45;;;13.50;99.90;;;;;;5070922;28;25073;-71
2022/11/01 06:31:02;;;;;;;12.23;1.80;;;13.50;99.90;;;;;;5060938;28;25126;-71
2022/11/01 06:33:28;;;;;;;10.43;2.47;;;13.40;99.90;;;;;;5061506;28;25070;-71
2022/11/01 06:35:53;;;;;;;10.18;1.77;;;13.40;99.90;;;;;;5060745;28;25060;-71
2022/11/01 06:38:19;;;;;;;16.95;2.47;;;13.40;99.90;;;;;;5062211;28;25070;-71
2022/11/01 06:40:48;;;;;;;12.82;2.10;;;13.40;99.90;;;;;;5046662;28;25146;-73
2022/11/01 06:43:14;;;;;;;14.50;2.08;;;13.40;99.90;;;;;;5056962;28;25058;-71
2022/11/01 06:45:40;;;;;;;15.05;1.90;;;13.40;99.90;;;;;;5065155;28;25096;-70
2022/11/01 06:48:05;;;;;;;8.68;2.13;;;13.40;99.90;;;;;;5057997;28;25103;-74
2022/11/01 06:50:31;;;;;;;7.25;1.33;;;13.40;99.90;;;;;;5060595;28;25055;-71
2022/11/01 06:52:58;;;;;;;11.32;1.70;;;13.40;99.90;;;;;;5046765;28;25091;-69
2022/11/01 06:55:25;;;;;;;10.20;1.80;;;13.40;99.90;;;;;;5041495;28;25075;-73
2022/11/01 06:57:59;;;;;;;14.55;2.20;;;13.30;99.90;;;;;;5044231;28;25066;-73
2022/11/01 07:00:27;;;;;;;16.27;2.15;;;13.30;99.90;;;;;;5055371;28;25079;-71
2022/11/01 07:03:00;;;;;;;17.00;2.50;;;13.30;99.90;;;;;;5063554;28;25091;-72
2022/11/01 07:05:26;;;;;;;15.05;2.03;;;13.30;99.90;;;;;;5057592;28;25053;-72
2022/11/01 07:07:52;;;;;;;12.05;2.08;;;13.30;99.90;;;;;;5067698;28;25065;-71
2022/11/01 07:10:18;;;;;;;8.65;1.38;;;13.30;99.90;;;;;;5067267;28;25062;-70
2022/11/01 07:12:43;;;;;;;14.38;2.33;;;13.40;99.90;;;;;;5058135;28;25067;-71
2022/11/01 07:15:09;;;;;;;8.52;1.88;;;13.30;99.90;;;;;;5056609;28;25079;-72
2022/11/01 07:17:35;;;;;;;10.32;2.15;;;13.30;99.90;;;;;;5055564;28;25099;-73
2022/11/01 07:20:01;;;;;;;10.85;2.63;;;13.30;99.90;;;;;;5046482;28;25055;-73
2022/11/01 07:22:26;;;;;;;6.22;1.75;;;13.30;99.90;;;;;;5052485;28;25193;-71
2022/11/01 07:24:52;;;;;;;13.48;2.97;;;13.30;99.90;;;;;;5057454;28;25065;-71
2022/11/01 07:27:17;;;;;;;16.27;2.17;;;13.30;99.90;;;;;;5055709;28;25118;-73
2022/11/01 07:29:43;;;;;;;16.85;3.15;;;13.40;99.90;;;;;;5036819;28;25061;-71
2022/11/01 07:32:09;;;;;;;14.80;2.05;;;13.40;99.90;;;;;;5058004;28;25067;-71
2022/11/01 07:34:34;;;;;;;7.75;2.17;;;13.40;99.90;;;;;;5053545;28;25078;-73
2022/11/01 07:37:00;;;;;;;8.48;3.08;;;13.40;99.90;;;;;;5055458;28;25069;-71
2022/11/01 07:39:25;;;;;;;12.88;1.98;;;13.40;99.90;;;;;;5064207;28;25081;-72
2022/11/01 07:41:53;;;;;;;13.20;1.92;;;13.40;99.90;;;;;;5056187;28;25057;-71
2022/11/01 07:44:19;;;;;;;12.68;2.00;;;13.40;99.90;;;;;;5057639;28;25056;-70
2022/11/01 07:46:44;;;;;;;22.50;4.28;;;13.40;99.90;;;;;;5059813;28;25052;-72
2022/11/01 07:49:10;;;;;;;14.55;2.95;;;13.40;99.90;;;;;;5051222;28;25112;-71
2022/11/01 07:51:36;;;;;;;12.73;1.83;;;13.40;99.90;;;;;;5051775;28;25164;-71
2022/11/01 07:54:01;;;;;;;10.10;1.77;;;13.50;99.90;;;;;;5055826;28;25053;-73
2022/11/01 07:56:28;;;;;;;4.78;2.03;;;13.40;99.90;;;;;;5062394;28;25115;-72
2022/11/01 07:58:53;;;;;;;22.10;3.63;;;13.50;99.90;;;;;;5064815;28;25107;-71
2022/11/01 08:01:19;;;;;;;8.98;1.90;;;13.40;99.90;;;;;;5063185;28;25111;-73
2022/11/01 08:03:44;;;;;;;14.82;2.03;;;13.40;99.90;;;;;;5049561;28;25074;-71
2022/11/01 08:06:10;;;;;;;5.25;1.67;;;13.40;99.90;;;;;;5064704;28;25063;-74
2022/11/01 08:08:36;;;;;;;12.57;2.10;;;13.40;99.90;;;;;;5050561;28;25073;-71
2022/11/01 08:11:01;;;;;;;16.33;2.85;;;13.40;99.90;;;;;;5063140;28;25083;-71
2022/11/01 08:13:28;;;;;;;15.88;1.83;;;13.50;99.90;;;;;;5050970;28;25100;-72
2022/11/01 08:15:53;;;;;;;12.68;2.25;;;13.50;99.90;;;;;;5082290;28;25069;-72
2022/11/01 08:18:22;;;;;;;11.73;2.30;;;13.40;99.90;;;;;;5056369;28;25075;-71
2022/11/01 08:20:48;;;;;;;12.38;1.98;;;13.40;99.90;;;;;;5070274;28;25058;-70
2022/11/01 08:23:13;;;;;;;11.15;1.73;;;13.40;99.90;;;;;;5037916;28;25059;-72
2022/11/01 08:25:39;;;;;;;13.48;2.05;;;13.40;99.90;;;;;;5052388;28;25081;-72
2022/11/01 08:28:08;;;;;;;12.63;1.55;;;13.50;99.90;;;;;;5052630;28;25136;-71
2022/11/01 08:30:35;;;;;;;4.60;2.10;;;13.50;99.90;;;;;;5059238;28;25050;-73
2022/11/01 08:33:02;;;;;;;15.73;4.40;;;13.50;99.90;;;;;;5039335;28;25111;-72
2022/11/01 08:35:28;;;;;;;13.70;1.83;;;13.50;99.90;;;;;;5043465;28;25078;-72
2022/11/01 08:37:54;;;;;;;12.38;2.05;;;13.50;99.90;;;;;;5049265;28;25064;-72
2022/11/01 08:40:20;;;;;;;11.43;2.28;;;13.60;99.90;;;;;;5053866;28;25063;-72
2022/11/01 08:42:46;;;;;;;9.70;2.10;;;13.60;99.90;;;;;;5053023;28;25095;-70
2022/11/01 08:45:13;;;;;;;11.10;2.22;;;13.70;99.90;;;;;;5050359;28;25062;-71
2022/11/01 08:47:39;;;;;;;10.27;1.67;;;13.70;99.90;;;;;;5054337;28;25059;-71
2022/11/01 08:50:06;;;;;;;14.55;2.20;;;13.80;99.90;;;;;;5060619;28;25062;-72
2022/11/01 08:52:32;;;;;;;15.55;2.22;;;13.80;99.90;;;;;;5053309;28;25073;-71
2022/11/01 08:54:57;;;;;;;11.88;2.72;;;13.80;99.90;;;;;;5054677;28;25115;-70
2022/11/01 08:57:23;;;;;;;5.00;1.67;;;13.90;99.90;;;;;;5052296;28;25139;-71
2022/11/01 08:59:49;;;;;;;16.02;2.55;;;14.00;99.90;;;;;;5055220;28;25086;-72
2022/11/01 09:02:15;;;;;;;11.30;1.98;;;14.00;99.90;;;;;;5045636;28;25100;-74
2022/11/01 09:04:41;;;;;;;21.35;4.35;;;14.00;99.90;;;;;;5057903;28;25066;-73
2022/11/01 09:07:06;;;;;;;11.07;2.53;;;14.10;99.90;;;;;;5040120;28;25142;-72
2022/11/01 09:09:32;;;;;;;10.88;2.20;;;14.10;99.90;;;;;;5067904;28;25078;-72
2022/11/01 09:11:57;;;;;;;12.90;1.73;;;14.10;99.90;;;;;;5068053;28;25128;-72
2022/11/01 09:14:25;;;;;;;11.18;2.00;;;14.10;99.90;;;;;;5057267;28;25072;-73
2022/11/01 09:16:51;;;;;;;7.53;1.73;;;14.20;99.90;;;;;;5051983;28;25060;-71
2022/11/01 09:19:17;;;;;;;16.65;3.70;;;14.20;99.90;;;;;;5049130;28;25164;-70
2022/11/01 09:21:43;;;;;;;7.57;2.33;;;14.20;99.90;;;;;;5055852;28;25142;-72
2022/11/01 09:24:13;;;;;;;12.68;2.25;;;14.10;99.90;;;;;;5051560;28;25050;-69
2022/11/01 09:26:39;;;;;;;11.30;2.53;;;14.10;99.90;;;;;;5036529;28;25163;-71
2022/11/01 09:29:05;;;;;;;9.63;2.15;;;14.20;99.90;;;;;;5056511;28;25102;-71
2022/11/01 09:31:32;;;;;;;17.02;2.30;;;14.20;99.90;;;;;;5055702;28;25090;-73
2022/11/01 09:33:59;;;;;;;17.92;2.75;;;14.20;99.90;;;;;;5047915;28;25118;-71
2022/11/01 09:36:26;;;;;;;12.35;2.47;;;14.20;99.90;;;;;;5039255;28;25059;-72
2022/11/01 09:38:53;;;;;;;10.63;2.38;;;14.20;99.90;;;;;;5049221;28;25118;-71
2022/11/01 09:41:32;;;;;;;12.73;1.92;;;14.30;99.90;;;;;;5053502;28;25056;-73
2022/11/01 09:44:02;;;;;;;7.45;1.83;;;14.40;99.90;;;;;;5049687;28;25150;-72
2022/11/01 09:46:31;;;;;;;11.68;1.88;;;14.50;99.90;;;;;;5048958;28;25071;-73
2022/11/01 09:49:00;;;;;;;15.13;2.20;;;14.50;99.90;;;;;;5043670;28;25140;-72
2022/11/01 09:51:26;;;;;;;7.65;1.75;;;14.50;99.90;;;;;;5055798;28;25051;-73
2022/11/01 09:53:54;;;;;;;13.77;2.30;;;14.60;99.90;;;;;;5049747;28;25123;-72
2022/11/01 09:56:50;;;;;;;10.70;2.28;;;14.60;99.90;;;;;;5058162;28;25056;-72
2022/11/01 09:59:30;;;;;;;6.40;1.98;;;14.60;99.90;;;;;;5041983;28;25065;-73
2022/11/01 10:02:33;;;;;;;11.85;2.75;;;14.70;99.90;;;;;;5040697;28;25061;-72
2022/11/01 10:05:37;;;;;;;13.43;2.20;;;14.80;99.90;;;;;;5056935;28;25053;-72
2022/11/01 10:08:25;;;;;;;9.13;2.03;;;14.90;99.90;;;;;;5040761;28;25058;-72
2022/11/01 10:11:16;;;;;;;9.13;1.88;;;14.90;99.90;;;;;;5071030;28;24928;-73
2022/11/01 10:13:44;;;;;;;12.52;1.80;;;15.10;99.90;;;;;;5072543;28;25055;-73
2022/11/01 10:16:36;;;;;;;7.30;1.38;;;15.60;99.90;;;;;;5064324;28;25067;-70
2022/11/01 10:19:22;;;;;;;12.18;3.00;;;15.40;99.90;;;;;;5067447;28;25163;-72
2022/11/01 10:21:53;;;;;;;5.93;1.77;;;15.30;99.90;;;;;;5067503;28;25090;-72
2022/11/01 10:24:18;;;;;;;10.25;1.70;;;15.40;99.90;;;;;;5081445;28;25057;-72
2022/11/01 10:26:45;;;;;;;13.18;2.50;;;15.50;99.90;;;;;;5068621;28;25063;-69
2022/11/01 10:29:44;;;;;;;5.55;1.60;;;15.70;99.90;;;;;;5057786;28;25062;-71
2022/11/01 10:32:25;;;;;;;8.18;2.00;;;16.00;99.90;;;;;;5054219;28;25095;-73
2022/11/01 10:34:52;;;;;;;5.40;1.38;;;16.00;99.90;;;;;;5064209;28;25116;-75
2022/11/01 10:37:24;;;;;;;5.90;1.63;;;15.80;99.90;;;;;;5051196;28;25105;-72
2022/11/01 10:39:58;;;;;;;9.32;2.30;;;15.80;99.90;;;;;;5068323;28;25065;-72
2022/11/01 10:42:27;;;;;;;8.70;1.83;;;15.90;99.90;;;;;;5077704;28;25067;-73
2022/11/01 10:44:57;;;;;;;12.77;2.55;;;16.00;99.90;;;;;;5067464;28;25068;-74
2022/11/01 10:47:24;;;;;;;8.60;1.55;;;16.10;99.90;;;;;;5044749;28;25056;-70
2022/11/01 10:50:05;;;;;;;9.30;1.65;;;16.30;99.90;;;;;;5046676;28;25178;-72
2022/11/01 10:52:58;;;;;;;5.50;1.70;;;16.40;99.90;;;;;;5066528;28;25112;-73
2022/11/01 10:55:36;;;;;;;10.68;1.88;;;16.40;99.90;;;;;;5062037;28;25062;-73
2022/11/01 10:58:25;;;;;;;9.75;2.15;;;16.60;99.90;;;;;;5067363;28;25109;-72
2022/11/01 11:00:51;;;;;;;5.70;1.58;;;16.70;99.90;;;;;;5058855;28;25137;-73
2022/11/01 11:03:22;;;;;;;6.68;1.48;;;16.70;99.90;;;;;;5052205;28;25149;-73
2022/11/01 11:05:50;;;;;;;13.38;1.92;;;16.60;99.90;;;;;;5053389;28;25054;-72
2022/11/01 11:08:20;;;;;;;4.72;1.40;;;16.60;99.90;;;;;;5068736;28;25165;-73
2022/11/01 11:10:46;;;;;;;3.63;1.30;;;16.40;99.90;;;;;;5055065;28;25097;-73
2022/11/01 11:13:15;;;;;;;9.45;1.48;;;16.60;99.90;;;;;;5070581;28;25086;-73
2022/11/01 11:15:53;;;;;;;7.70;1.80;;;16.90;99.90;;;;;;5062027;28;25073;-74
2022/11/01 11:18:30;;;;;;;8.82;2.13;;;17.10;99.90;;;;;;5073910;28;25127;-74
2022/11/01 11:20:59;;;;;;;13.73;1.80;;;17.00;99.90;;;;;;5073931;28;25075;-73
2022/11/01 11:23:28;;;;;;;8.05;2.25;;;16.80;99.90;;;;;;5069269;28;25075;-74
2022/11/01 11:26:00;;;;;;;11.55;1.50;;;16.80;99.90;;;;;;5072878;28;25066;-76
2022/11/01 11:28:30;;;;;;;7.50;1.50;;;16.90;99.90;;;;;;5074583;28;25065;-74
2022/11/01 11:31:10;;;;;;;4.13;1.27;;;17.00;99.90;;;;;;5067962;28;25131;-76
2022/11/01 11:33:35;;;;;;;7.45;1.77;;;17.00;99.90;;;;;;5060296;28;25158;-73
2022/11/01 11:36:02;;;;;;;5.82;1.27;;;17.30;99.90;;;;;;5066759;28;25086;-76
2022/11/01 11:38:43;;;;;;;5.53;1.25;;;17.40;99.90;;;;;;5065038;28;25097;-75
2022/11/01 11:41:10;;;;;;;7.40;1.77;;;17.40;99.90;;;;;;5063293;28;25065;-73
2022/11/01 11:43:36;;;;;;;10.90;1.58;;;17.50;99.90;;;;;;5074700;28;25087;-74
2022/11/01 11:46:13;;;;;;;12.05;1.65;;;17.60;99.90;;;;;;5074400;28;25053;-75
2022/11/01 11:48:55;;;;;;;8.63;1.25;;;18.00;99.90;;;;;;5078494;28;25099;-76
2022/11/01 11:51:23;;;;;;;9.40;2.30;;;17.60;99.90;;;;;;5069140;28;25144;-74
2022/11/01 11:54:23;;;;;;;4.97;1.48;;;17.60;99.90;;;;;;5072237;28;25045;-80
2022/11/01 11:56:51;;;;;;;10.20;1.13;;;17.70;99.90;;;;;;5066845;28;25115;-73
2022/11/01 11:59:30;;;;;;;10.23;1.45;;;17.70;99.90;;;;;;5068801;28;25147;-78
2022/11/01 12:01:58;;;;;;;5.18;1.50;;;17.60;99.90;;;;;;5067980;28;25055;-75
2022/11/01 12:04:38;;;;;;;4.30;1.52;;;17.60;99.90;;;;;;5070614;28;25170;-75
2022/11/01 12:07:07;;;;;;;4.05;1.20;;;17.80;99.90;;;;;;5064869;28;25076;-75
2022/11/01 12:09:46;;;;;;;9.18;1.38;;;17.50;99.90;;;;;;5050132;28;25096;-77
2022/11/01 12:12:33;;;;;;;5.78;1.45;;;17.50;99.90;;;;;;5071488;28;25102;-76
2022/11/01 12:15:01;;;;;;;11.75;1.23;;;17.60;99.90;;;;;;5066579;28;25075;-76
2022/11/01 12:17:31;;;;;;;7.30;1.83;;;17.90;99.90;;;;;;5070469;28;25073;-74
2022/11/01 12:20:08;;;;;;;10.50;1.27;;;18.00;99.90;;;;;;5053513;28;25096;-74
2022/11/01 12:22:36;;;;;;;7.60;1.10;;;18.10;99.90;;;;;;5065296;28;25132;-74
2022/11/01 12:25:12;;;;;;;8.60;1.52;;;17.90;99.90;;;;;;5062019;28;25203;-72
2022/11/01 12:27:43;;;;;;;8.88;1.40;;;17.90;99.90;;;;;;5061212;28;25120;-76
2022/11/01 12:30:20;;;;;;;9.60;1.17;;;18.20;99.90;;;;;;5072027;28;25060;-76
2022/11/01 12:32:56;;;;;;;5.43;1.40;;;18.00;99.90;;;;;;5061050;28;25098;-74
2022/11/01 12:35:32;;;;;;;5.78;1.30;;;18.00;99.90;;;;;;5071547;28;25067;-73
2022/11/01 12:38:09;;;;;;;4.82;1.15;;;18.20;99.90;;;;;;5057603;28;25049;-74
2022/11/01 12:40:37;;;;;;;5.63;1.38;;;18.40;99.90;;;;;;5066043;28;25115;-77
2022/11/01 12:43:10;;;;;;;5.63;1.48;;;18.60;99.90;;;;;;5066702;28;25083;-77
2022/11/01 12:46:00;;;;;;;9.73;2.53;;;18.60;99.90;;;;;;5063546;28;25157;-73
2022/11/01 12:48:35;;;;;;;7.72;1.55;;;18.70;99.90;;;;;;5065057;28;25086;-75
2022/11/01 12:51:15;;;;;;;9.57;1.23;;;18.50;99.90;;;;;;5058759;28;25125;-80
2022/11/01 12:53:53;;;;;;;8.48;1.55;;;18.20;99.90;;;;;;5073321;28;25136;-76
2022/11/01 12:56:18;;;;;;;4.88;1.00;;;18.20;99.90;;;;;;5066861;28;25066;-77
2022/11/01 12:58:44;;;;;;;14.25;2.15;;;18.20;99.90;;;;;;5066590;28;25062;-75
2022/11/01 13:01:47;;;;;;;7.97;1.20;;;18.20;99.90;;;;;;5069025;28;25051;-75
2022/11/01 13:04:21;;;;;;;6.22;1.98;;;17.90;99.90;;;;;;5062637;28;25073;-76